Time,TemperatureF,DewpointF,PressureIn,WindDirection,WindDirectionDegrees,WindSpeedMPH,WindSpeedGustMPH,Humidity,HourlyPrecipIn,Conditions,Clouds,dailyrainin,SoftwareType,DateUTC
2013-11-12 00:05:00,50.7,42.0,30.23,NNE,29,6.0,6.0,72,0.00,,,0.00,Wunderground v.1.15,2013-11-12 05:05:00,
2013-11-12 00:10:00,50.2,42.6,30.23,NE,36,6.0,9.0,75,0.00,,,0.00,Wunderground v.1.15,2013-11-12 05:10:00,
2013-11-12 00:15:00,49.7,42.8,30.24,North,11,7.0,9.0,77,0.00,,,0.00,Wunderground v.1.15,2013-11-12 05:15:00,
2013-11-12 00:20:00,49.5,42.9,30.24,North,5,7.0,9.0,78,0.00,,,0.00,Wunderground v.1.15,2013-11-12 05:20:00,
2013-11-12 00:25:00,49.2,43.0,30.24,NNW,346,8.0,8.0,79,0.00,,,0.00,Wunderground v.1.15,2013-11-12 05:25:00,
2013-11-12 00:30:00,49.0,43.1,30.24,NNE,21,8.0,9.0,80,0.00,,,0.00,Wunderground v.1.15,2013-11-12 05:30:00,
2013-11-12 00:35:00,48.8,43.2,30.25,ENE,60,9.0,14.0,81,0.00,,,0.00,Wunderground v.1.15,2013-11-12 05:35:00,
2013-11-12 00:40:00,48.6,43.4,30.25,NE,40,8.0,14.0,82,0.00,,,0.00,Wunderground v.1.15,2013-11-12 05:40:00,
2013-11-12 00:45:00,48.4,43.2,30.25,North,5,7.0,12.0,82,0.00,,,0.00,Wunderground v.1.15,2013-11-12 05:45:00,
2013-11-12 00:55:00,47.8,42.9,30.25,North,5,8.0,8.0,83,0.00,,,0.00,Wunderground v.1.15,2013-11-12 05:55:00,
2013-11-12 01:00:00,47.6,43.0,30.25,NNE,13,6.0,6.0,84,0.00,,,0.00,Wunderground v.1.15,2013-11-12 06:00:00,
2013-11-12 01:05:00,47.3,43.3,30.25,North,360,5.0,9.0,86,0.00,,,0.00,Wunderground v.1.15,2013-11-12 06:05:00,
2013-11-12 01:10:00,47.0,43.3,30.26,North,355,5.0,5.0,87,0.00,,,0.00,Wunderground v.1.15,2013-11-12 06:10:00,
2013-11-12 01:15:00,46.7,43.3,30.26,NW,316,5.0,10.0,88,0.00,,,0.00,Wunderground v.1.15,2013-11-12 06:15:00,
2013-11-12 01:25:00,45.6,42.8,30.27,ENE,57,7.0,10.0,90,0.00,,,0.00,Wunderground v.1.15,2013-11-12 06:25:00,
2013-11-12 01:30:00,45.0,42.5,30.27,ENE,59,6.0,6.0,91,0.00,,,0.00,Wunderground v.1.15,2013-11-12 06:30:00,
2013-11-12 01:35:00,44.4,41.9,30.27,NNE,13,5.0,9.0,91,0.00,,,0.01,Wunderground v.1.15,2013-11-12 06:35:00,
2013-11-12 01:40:00,44.0,41.8,30.28,NE,46,7.0,9.0,92,0.00,,,0.01,Wunderground v.1.15,2013-11-12 06:40:00,
2013-11-12 01:45:00,43.5,41.0,30.28,ENE,61,8.0,9.0,91,0.00,,,0.01,Wunderground v.1.15,2013-11-12 06:45:00,
2013-11-12 01:50:00,43.2,41.0,30.28,North,355,9.0,9.0,92,0.00,,,0.01,Wunderground v.1.15,2013-11-12 06:50:00,
2013-11-12 01:55:00,42.9,40.7,30.28,ENE,63,7.0,9.0,92,0.00,,,0.02,Wunderground v.1.15,2013-11-12 06:55:00,
2013-11-12 02:00:00,42.8,40.9,30.28,NNE,22,6.0,11.0,93,0.00,,,0.02,Wunderground v.1.15,2013-11-12 07:00:00,
2013-11-12 02:05:00,42.4,40.5,30.28,ENE,60,6.0,11.0,93,0.00,,,0.02,Wunderground v.1.15,2013-11-12 07:05:00,
2013-11-12 02:10:00,41.7,39.8,30.29,ENE,59,8.0,12.0,93,0.00,,,0.02,Wunderground v.1.15,2013-11-12 07:10:00,
2013-11-12 02:20:00,40.8,38.9,30.30,NE,42,9.0,9.0,93,0.00,,,0.02,Wunderground v.1.15,2013-11-12 07:20:00,
2013-11-12 02:25:00,40.7,39.1,30.30,NNE,30,8.0,12.0,94,0.00,,,0.02,Wunderground v.1.15,2013-11-12 07:25:00,
2013-11-12 02:30:00,40.4,38.8,30.31,NNE,17,8.0,8.0,94,0.00,,,0.02,Wunderground v.1.15,2013-11-12 07:30:00,
2013-11-12 02:40:00,39.6,37.5,30.31,NE,52,10.0,12.0,92,0.00,,,0.03,Wunderground v.1.15,2013-11-12 07:40:00,
2013-11-12 02:45:00,39.0,37.1,30.32,East,90,11.0,12.0,93,0.00,,,0.03,Wunderground v.1.15,2013-11-12 07:45:00,
2013-11-12 02:50:00,38.7,36.9,30.32,NE,49,9.0,12.0,93,0.05,,,0.04,Wunderground v.1.15,2013-11-12 07:50:00,
2013-11-12 02:55:00,38.4,36.8,30.33,ENE,65,7.0,12.0,94,0.05,,,0.04,Wunderground v.1.15,2013-11-12 07:55:00,
2013-11-12 03:00:00,38.2,36.6,30.33,ENE,71,5.0,5.0,94,0.04,,,0.04,Wunderground v.1.15,2013-11-12 08:00:00,
2013-11-12 03:05:00,37.8,36.2,30.33,NE,40,5.0,9.0,94,0.00,,,0.04,Wunderground v.1.15,2013-11-12 08:05:00,
2013-11-12 03:10:00,37.1,35.3,30.33,NNE,27,7.0,12.0,93,0.00,,,0.04,Wunderground v.1.15,2013-11-12 08:10:00,
2013-11-12 03:15:00,36.4,34.3,30.34,ENE,69,10.0,12.0,92,0.00,,,0.04,Wunderground v.1.15,2013-11-12 08:15:00,
2013-11-12 03:20:00,36.0,34.2,30.34,NE,54,10.0,10.0,93,0.00,,,0.04,Wunderground v.1.15,2013-11-12 08:20:00,
2013-11-12 03:25:00,35.7,34.1,30.35,ENE,66,6.0,10.0,94,0.00,,,0.04,Wunderground v.1.15,2013-11-12 08:25:00,
2013-11-12 03:30:00,35.4,33.8,30.34,ENE,78,6.0,11.0,94,0.00,,,0.04,Wunderground v.1.15,2013-11-12 08:30:00,
2013-11-12 03:35:00,35.1,33.5,30.34,ENE,66,8.0,11.0,94,0.00,,,0.04,Wunderground v.1.15,2013-11-12 08:35:00,
2013-11-12 03:40:00,34.8,33.2,30.35,NE,47,6.0,9.0,94,0.00,,,0.04,Wunderground v.1.15,2013-11-12 08:40:00,
2013-11-12 03:45:00,34.4,32.9,30.35,NE,37,3.0,9.0,94,0.00,,,0.04,Wunderground v.1.15,2013-11-12 08:45:00,
2013-11-12 03:50:00,34.1,32.6,30.35,ENE,69,4.0,9.0,94,0.00,,,0.05,Wunderground v.1.15,2013-11-12 08:50:00,
2013-11-12 03:55:00,33.8,32.5,30.36,ENE,69,5.0,9.0,95,0.00,,,0.05,Wunderground v.1.15,2013-11-12 08:55:00,
2013-11-12 04:00:00,33.7,32.4,30.36,NE,51,4.0,9.0,95,0.00,,,0.05,Wunderground v.1.15,2013-11-12 09:00:00,
2013-11-12 04:05:00,33.5,32.2,30.36,ENE,64,6.0,9.0,95,0.00,,,0.05,Wunderground v.1.15,2013-11-12 09:05:00,
2013-11-12 04:10:00,33.4,32.1,30.36,NE,45,6.0,6.0,95,0.00,,,0.05,Wunderground v.1.15,2013-11-12 09:10:00,
2013-11-12 04:20:00,33.2,31.9,30.37,NE,36,4.0,9.0,95,0.00,,,0.05,Wunderground v.1.15,2013-11-12 09:20:00,
2013-11-12 04:25:00,33.0,31.7,30.37,ENE,69,5.0,13.0,95,0.00,,,0.05,Wunderground v.1.15,2013-11-12 09:25:00,
2013-11-12 04:30:00,32.9,31.6,30.37,NE,55,7.0,9.0,95,0.00,,,0.05,Wunderground v.1.15,2013-11-12 09:30:00,
2013-11-12 04:35:00,32.8,31.8,30.38,NE,56,6.0,9.0,96,0.00,,,0.05,Wunderground v.1.15,2013-11-12 09:35:00,
2013-11-12 04:40:00,32.8,31.8,30.38,NE,41,3.0,3.0,96,0.00,,,0.05,Wunderground v.1.15,2013-11-12 09:40:00,
2013-11-12 04:45:00,32.8,31.8,30.38,NNE,18,2.0,9.0,96,0.00,,,0.05,Wunderground v.1.15,2013-11-12 09:45:00,
2013-11-12 04:50:00,32.7,31.7,30.38,ENE,75,3.0,3.0,96,0.00,,,0.05,Wunderground v.1.15,2013-11-12 09:50:00,
2013-11-12 04:55:00,32.6,31.6,30.39,NNE,32,4.0,5.0,96,0.00,,,0.05,Wunderground v.1.15,2013-11-12 09:55:00,
2013-11-12 05:00:00,32.6,31.6,30.39,ENE,68,4.0,10.0,96,0.00,,,0.05,Wunderground v.1.15,2013-11-12 10:00:00,
2013-11-12 05:05:00,32.6,31.6,30.40,NE,34,5.0,10.0,96,0.00,,,0.05,Wunderground v.1.15,2013-11-12 10:05:00,
2013-11-12 05:10:00,32.6,31.6,30.40,NE,53,4.0,9.0,96,0.00,,,0.05,Wunderground v.1.15,2013-11-12 10:10:00,
2013-11-12 05:15:00,32.5,31.7,30.40,ENE,59,2.0,9.0,97,0.00,,,0.05,Wunderground v.1.15,2013-11-12 10:15:00,
2013-11-12 05:20:00,32.5,31.7,30.40,ENE,70,3.0,3.0,97,0.00,,,0.05,Wunderground v.1.15,2013-11-12 10:20:00,
2013-11-12 05:25:00,32.5,31.7,30.40,NE,55,2.0,9.0,97,0.00,,,0.05,Wunderground v.1.15,2013-11-12 10:25:00,
2013-11-12 05:30:00,32.5,31.7,30.41,ENE,63,2.0,9.0,97,0.00,,,0.05,Wunderground v.1.15,2013-11-12 10:30:00,
2013-11-12 05:35:00,32.5,31.7,30.41,NE,56,2.0,9.0,97,0.00,,,0.05,Wunderground v.1.15,2013-11-12 10:35:00,
2013-11-12 05:40:00,32.5,31.7,30.42,ENE,57,3.0,9.0,97,0.00,,,0.05,Wunderground v.1.15,2013-11-12 10:40:00,
2013-11-12 05:45:00,32.2,31.2,30.42,East,82,3.0,9.0,96,0.00,,,0.05,Wunderground v.1.15,2013-11-12 10:45:00,
2013-11-12 05:50:00,31.9,30.9,30.43,ENE,65,5.0,9.0,96,0.00,,,0.05,Wunderground v.1.15,2013-11-12 10:50:00,
2013-11-12 05:55:00,31.4,30.4,30.43,ENE,57,7.0,9.0,96,0.00,,,0.05,Wunderground v.1.15,2013-11-12 10:55:00,
2013-11-12 06:05:00,30.7,29.7,30.44,ENE,72,7.0,10.0,96,0.00,,,0.05,Wunderground v.1.15,2013-11-12 11:05:00,
2013-11-12 06:10:00,30.5,29.5,30.44,ENE,61,6.0,10.0,96,0.00,,,0.05,Wunderground v.1.15,2013-11-12 11:10:00,
2013-11-12 06:15:00,30.3,29.3,30.45,NE,50,7.0,9.0,96,0.00,,,0.05,Wunderground v.1.15,2013-11-12 11:15:00,
2013-11-12 06:20:00,30.1,29.1,30.45,ENE,71,7.0,9.0,96,0.00,,,0.05,Wunderground v.1.15,2013-11-12 11:20:00,
2013-11-12 06:25:00,29.9,28.9,30.45,ENE,63,6.0,6.0,96,0.00,,,0.05,Wunderground v.1.15,2013-11-12 11:25:00,
2013-11-12 06:30:00,29.6,28.6,30.45,East,80,7.0,7.0,96,0.00,,,0.05,Wunderground v.1.15,2013-11-12 11:30:00,
2013-11-12 06:40:00,29.4,28.4,30.46,NE,55,4.0,9.0,96,0.00,,,0.05,Wunderground v.1.15,2013-11-12 11:40:00,
2013-11-12 06:50:00,29.4,28.4,30.47,ENE,64,3.0,9.0,96,0.00,,,0.05,Wunderground v.1.15,2013-11-12 11:50:00,
2013-11-12 06:55:00,29.3,28.3,30.47,ENE,57,3.0,9.0,96,0.00,,,0.05,Wunderground v.1.15,2013-11-12 11:55:00,
2013-11-12 07:05:00,29.2,28.2,30.48,ENE,75,7.0,7.0,96,0.00,,,0.05,Wunderground v.1.15,2013-11-12 12:05:00,
2013-11-12 07:10:00,29.2,28.2,30.48,NE,50,7.0,9.0,96,0.00,,,0.05,Wunderground v.1.15,2013-11-12 12:10:00,
2013-11-12 07:15:00,28.9,27.6,30.49,ENE,74,7.0,11.0,95,0.00,,,0.05,Wunderground v.1.15,2013-11-12 12:15:00,
2013-11-12 07:20:00,28.7,27.2,30.49,East,93,7.0,11.0,94,0.00,,,0.05,Wunderground v.1.15,2013-11-12 12:20:00,
2013-11-12 07:25:00,28.5,27.0,30.49,ENE,74,6.0,6.0,94,0.00,,,0.05,Wunderground v.1.15,2013-11-12 12:25:00,
2013-11-12 07:30:00,28.5,27.0,30.50,ENE,70,4.0,9.0,94,0.00,,,0.05,Wunderground v.1.15,2013-11-12 12:30:00,
2013-11-12 07:40:00,28.5,27.0,30.51,ENE,64,5.0,9.0,94,0.00,,,0.05,Wunderground v.1.15,2013-11-12 12:40:00,
2013-11-12 07:45:00,28.6,27.1,30.51,NE,44,3.0,3.0,94,0.00,,,0.05,Wunderground v.1.15,2013-11-12 12:45:00,
2013-11-12 07:50:00,28.6,27.1,30.51,ENE,73,2.0,9.0,94,0.00,,,0.05,Wunderground v.1.15,2013-11-12 12:50:00,
2013-11-12 07:55:00,28.7,27.2,30.51,ENE,61,4.0,9.0,94,0.00,,,0.05,Wunderground v.1.15,2013-11-12 12:55:00,
2013-11-12 08:00:00,28.7,26.9,30.52,NE,51,5.0,5.0,93,0.00,,,0.05,Wunderground v.1.15,2013-11-12 13:00:00,
2013-11-12 08:05:00,28.7,26.9,30.52,NE,42,4.0,9.0,93,0.00,,,0.05,Wunderground v.1.15,2013-11-12 13:05:00,
2013-11-12 08:10:00,28.7,26.9,30.52,ENE,69,4.0,4.0,93,0.00,,,0.05,Wunderground v.1.15,2013-11-12 13:10:00,
2013-11-12 08:15:00,28.8,27.0,30.53,East,87,4.0,5.0,93,0.00,,,0.05,Wunderground v.1.15,2013-11-12 13:15:00,
2013-11-12 08:20:00,28.9,27.1,30.53,ENE,66,5.0,5.0,93,0.00,,,0.05,Wunderground v.1.15,2013-11-12 13:20:00,
2013-11-12 08:25:00,28.9,27.1,30.53,NE,53,5.0,9.0,93,0.00,,,0.05,Wunderground v.1.15,2013-11-12 13:25:00,
2013-11-12 08:30:00,28.9,27.1,30.53,ENE,63,4.0,9.0,93,0.00,,,0.05,Wunderground v.1.15,2013-11-12 13:30:00,
2013-11-12 08:35:00,29.0,27.2,30.53,ENE,61,4.0,9.0,93,0.00,,,0.05,Wunderground v.1.15,2013-11-12 13:35:00,
2013-11-12 08:40:00,29.0,27.2,30.54,ENE,76,3.0,9.0,93,0.00,,,0.05,Wunderground v.1.15,2013-11-12 13:40:00,
2013-11-12 08:45:00,29.0,27.2,30.54,ENE,78,3.0,9.0,93,0.00,,,0.05,Wunderground v.1.15,2013-11-12 13:45:00,
2013-11-12 08:50:00,29.0,27.5,30.54,NNE,33,3.0,9.0,94,0.00,,,0.05,Wunderground v.1.15,2013-11-12 13:50:00,
2013-11-12 08:55:00,29.1,27.3,30.55,NE,37,4.0,9.0,93,0.00,,,0.05,Wunderground v.1.15,2013-11-12 13:55:00,
2013-11-12 09:05:00,29.1,27.3,30.55,NNE,26,5.0,9.0,93,0.00,,,0.05,Wunderground v.1.15,2013-11-12 14:05:00,
2013-11-12 09:10:00,29.2,27.2,30.55,ENE,73,5.0,9.0,92,0.00,,,0.05,Wunderground v.1.15,2013-11-12 14:10:00,
2013-11-12 09:20:00,29.2,27.2,30.55,NE,53,4.0,5.0,92,0.00,,,0.05,Wunderground v.1.15,2013-11-12 14:20:00,
2013-11-12 09:25:00,29.2,26.9,30.56,NNE,22,4.0,9.0,91,0.00,,,0.05,Wunderground v.1.15,2013-11-12 14:25:00,
2013-11-12 09:30:00,29.0,26.7,30.56,NNE,27,4.0,9.0,91,0.00,,,0.05,Wunderground v.1.15,2013-11-12 14:30:00,
2013-11-12 09:35:00,28.9,26.6,30.56,NNE,19,4.0,9.0,91,0.00,,,0.05,Wunderground v.1.15,2013-11-12 14:35:00,
2013-11-12 09:40:00,28.7,26.1,30.56,ENE,59,4.0,11.0,90,0.00,,,0.05,Wunderground v.1.15,2013-11-12 14:40:00,
2013-11-12 09:45:00,28.5,25.7,30.56,NE,56,6.0,9.0,89,0.00,,,0.05,Wunderground v.1.15,2013-11-12 14:45:00,
2013-11-12 09:50:00,28.4,25.8,30.57,NE,52,7.0,9.0,90,0.00,,,0.05,Wunderground v.1.15,2013-11-12 14:50:00,
2013-11-12 09:55:00,28.4,25.8,30.57,NE,42,6.0,9.0,90,0.00,,,0.05,Wunderground v.1.15,2013-11-12 14:55:00,
2013-11-12 10:00:00,28.4,25.8,30.57,ENE,59,5.0,9.0,90,0.00,,,0.05,Wunderground v.1.15,2013-11-12 15:00:00,
2013-11-12 10:10:00,28.3,25.2,30.57,East,80,7.0,7.0,88,0.00,,,0.05,Wunderground v.1.15,2013-11-12 15:10:00,
2013-11-12 10:15:00,28.3,25.2,30.58,ENE,63,6.0,9.0,88,0.00,,,0.05,Wunderground v.1.15,2013-11-12 15:15:00,
2013-11-12 10:20:00,28.7,25.6,30.58,ENE,76,5.0,5.0,88,0.00,,,0.05,Wunderground v.1.15,2013-11-12 15:20:00,
2013-11-12 10:25:00,29.2,26.4,30.58,ENE,71,4.0,9.0,89,0.00,,,0.05,Wunderground v.1.15,2013-11-12 15:25:00,
2013-11-12 10:30:00,29.2,25.5,30.58,ENE,61,6.0,6.0,86,0.00,,,0.05,Wunderground v.1.15,2013-11-12 15:30:00,
2013-11-12 10:35:00,29.1,25.7,30.58,ENE,72,7.0,7.0,87,0.00,,,0.05,Wunderground v.1.15,2013-11-12 15:35:00,
2013-11-12 10:40:00,29.2,25.5,30.59,ENE,57,6.0,6.0,86,0.00,,,0.05,Wunderground v.1.15,2013-11-12 15:40:00,
2013-11-12 10:45:00,29.0,24.8,30.59,ENE,57,6.0,10.0,84,0.00,,,0.05,Wunderground v.1.15,2013-11-12 15:45:00,
2013-11-12 10:50:00,29.2,25.0,30.59,NE,55,5.0,9.0,84,0.00,,,0.05,Wunderground v.1.15,2013-11-12 15:50:00,
2013-11-12 10:55:00,29.2,24.7,30.59,East,80,5.0,9.0,83,0.00,,,0.05,Wunderground v.1.15,2013-11-12 15:55:00,
2013-11-12 11:00:00,29.4,24.6,30.59,ENE,61,5.0,9.0,82,0.00,,,0.05,Wunderground v.1.15,2013-11-12 16:00:00,
2013-11-12 11:05:00,29.8,25.6,30.59,ENE,76,4.0,9.0,84,0.00,,,0.05,Wunderground v.1.15,2013-11-12 16:05:00,
2013-11-12 11:10:00,30.7,26.7,30.59,ENE,74,3.0,9.0,85,0.00,,,0.06,Wunderground v.1.15,2013-11-12 16:10:00,
2013-11-12 11:15:00,30.3,25.2,30.59,NE,38,4.0,9.0,81,0.00,,,0.06,Wunderground v.1.15,2013-11-12 16:15:00,
2013-11-12 11:20:00,29.7,25.2,30.60,North,9,5.0,9.0,83,0.00,,,0.06,Wunderground v.1.15,2013-11-12 16:20:00,
2013-11-12 11:25:00,29.4,24.9,30.59,ENE,69,5.0,9.0,83,0.00,,,0.06,Wunderground v.1.15,2013-11-12 16:25:00,
2013-11-12 11:30:00,29.5,24.7,30.59,ENE,59,5.0,5.0,82,0.00,,,0.07,Wunderground v.1.15,2013-11-12 16:30:00,
2013-11-12 11:40:00,30.2,25.9,30.59,NNE,26,4.0,9.0,84,0.00,,,0.07,Wunderground v.1.15,2013-11-12 16:40:00,
2013-11-12 11:45:00,29.9,24.5,30.59,NE,53,4.0,9.0,80,0.00,,,0.07,Wunderground v.1.15,2013-11-12 16:45:00,
2013-11-12 11:50:00,30.2,25.4,30.59,North,355,5.0,9.0,82,0.00,,,0.07,Wunderground v.1.15,2013-11-12 16:50:00,
2013-11-12 11:55:00,30.3,25.2,30.59,NNE,28,4.0,9.0,81,0.00,,,0.07,Wunderground v.1.15,2013-11-12 16:55:00,
2013-11-12 12:00:00,29.9,24.2,30.59,ENE,63,6.0,10.0,79,0.00,,,0.08,Wunderground v.1.15,2013-11-12 17:00:00,
2013-11-12 12:10:00,30.4,24.7,30.59,ENE,66,6.0,6.0,79,0.00,,,0.08,Wunderground v.1.15,2013-11-12 17:10:00,
2013-11-12 12:15:00,31.2,24.8,30.58,ESE,113,4.0,9.0,77,0.00,,,0.08,Wunderground v.1.15,2013-11-12 17:15:00,
2013-11-12 12:20:00,31.4,25.0,30.58,ENE,71,4.0,4.0,77,0.00,,,0.08,Wunderground v.1.15,2013-11-12 17:20:00,
2013-11-12 12:25:00,31.2,24.5,30.58,East,99,5.0,5.0,76,0.00,,,0.08,Wunderground v.1.15,2013-11-12 17:25:00,
2013-11-12 12:35:00,31.5,23.8,30.58,NE,41,6.0,9.0,73,0.00,,,0.08,Wunderground v.1.15,2013-11-12 17:35:00,
2013-11-12 12:40:00,31.7,24.0,30.58,ENE,57,6.0,6.0,73,0.00,,,0.08,Wunderground v.1.15,2013-11-12 17:40:00,
2013-11-12 12:45:00,31.6,22.9,30.58,NNE,33,7.0,7.0,70,0.00,,,0.08,Wunderground v.1.15,2013-11-12 17:45:00,
2013-11-12 12:50:00,31.8,23.8,30.58,North,9,7.0,10.0,72,0.00,,,0.08,Wunderground v.1.15,2013-11-12 17:50:00,
2013-11-12 12:55:00,32.3,24.6,30.58,NE,39,5.0,10.0,73,0.00,,,0.08,Wunderground v.1.15,2013-11-12 17:55:00,
2013-11-12 13:00:00,33.0,24.6,30.58,NE,48,3.0,9.0,71,0.00,,,0.08,Wunderground v.1.15,2013-11-12 18:00:00,
2013-11-12 13:05:00,33.3,24.2,30.58,ENE,66,4.0,9.0,69,0.00,,,0.08,Wunderground v.1.15,2013-11-12 18:05:00,
2013-11-12 13:10:00,34.2,26.4,30.58,ENE,61,4.0,9.0,73,0.00,,,0.08,Wunderground v.1.15,2013-11-12 18:10:00,
2013-11-12 13:15:00,33.6,23.1,30.58,NNE,28,5.0,9.0,65,0.00,,,0.08,Wunderground v.1.15,2013-11-12 18:15:00,
2013-11-12 13:20:00,33.3,21.3,30.58,North,355,9.0,9.0,61,0.00,,,0.08,Wunderground v.1.15,2013-11-12 18:20:00,
2013-11-12 13:25:00,33.6,21.6,30.58,ENE,57,8.0,10.0,61,0.00,,,0.08,Wunderground v.1.15,2013-11-12 18:25:00,
2013-11-12 13:30:00,33.3,20.9,30.58,East,93,8.0,8.0,60,0.00,,,0.08,Wunderground v.1.15,2013-11-12 18:30:00,
2013-11-12 13:35:00,33.2,21.2,30.58,ENE,59,9.0,10.0,61,0.00,,,0.08,Wunderground v.1.15,2013-11-12 18:35:00,
2013-11-12 13:40:00,33.6,23.4,30.58,ENE,72,7.0,7.0,66,0.00,,,0.08,Wunderground v.1.15,2013-11-12 18:40:00,
2013-11-12 13:45:00,34.2,23.3,30.59,NE,39,4.0,9.0,64,0.00,,,0.08,Wunderground v.1.15,2013-11-12 18:45:00,
2013-11-12 13:50:00,34.2,21.7,30.58,ENE,57,6.0,10.0,60,0.00,,,0.08,Wunderground v.1.15,2013-11-12 18:50:00,
2013-11-12 13:55:00,34.4,23.1,30.58,North,360,6.0,10.0,63,0.00,,,0.08,Wunderground v.1.15,2013-11-12 18:55:00,
2013-11-12 14:00:00,34.7,22.2,30.58,NE,39,5.0,9.0,60,0.00,,,0.08,Wunderground v.1.15,2013-11-12 19:00:00,
2013-11-12 14:05:00,34.3,21.0,30.59,ENE,67,6.0,15.0,58,0.00,,,0.08,Wunderground v.1.15,2013-11-12 19:05:00,
2013-11-12 14:10:00,34.3,22.6,30.59,North,360,8.0,8.0,62,0.00,,,0.08,Wunderground v.1.15,2013-11-12 19:10:00,
2013-11-12 14:15:00,34.4,21.1,30.59,ENE,62,8.0,9.0,58,0.00,,,0.08,Wunderground v.1.15,2013-11-12 19:15:00,
2013-11-12 14:20:00,33.8,20.2,30.59,ENE,67,9.0,10.0,57,0.00,,,0.08,Wunderground v.1.15,2013-11-12 19:20:00,
2013-11-12 14:25:00,33.4,20.2,30.59,ENE,76,10.0,10.0,58,0.00,,,0.08,Wunderground v.1.15,2013-11-12 19:25:00,
2013-11-12 14:35:00,33.9,20.3,30.59,ENE,69,7.0,10.0,57,0.00,,,0.08,Wunderground v.1.15,2013-11-12 19:35:00,
2013-11-12 14:40:00,34.0,21.6,30.59,NE,39,6.0,6.0,60,0.00,,,0.08,Wunderground v.1.15,2013-11-12 19:40:00,
2013-11-12 14:45:00,34.3,21.0,30.59,NE,38,7.0,7.0,58,0.00,,,0.08,Wunderground v.1.15,2013-11-12 19:45:00,
2013-11-12 14:50:00,34.2,20.1,30.60,NNE,31,8.0,9.0,56,0.00,,,0.08,Wunderground v.1.15,2013-11-12 19:50:00,
2013-11-12 14:55:00,34.0,20.3,30.60,ENE,70,8.0,9.0,57,0.00,,,0.08,Wunderground v.1.15,2013-11-12 19:55:00,
2013-11-12 15:00:00,34.0,18.6,30.60,ENE,63,8.0,8.0,53,0.00,,,0.08,Wunderground v.1.15,2013-11-12 20:00:00,
2013-11-12 15:05:00,33.9,19.4,30.60,ENE,57,8.0,9.0,55,0.00,,,0.08,Wunderground v.1.15,2013-11-12 20:05:00,
2013-11-12 15:10:00,34.0,19.9,30.60,ENE,59,8.0,13.0,56,0.00,,,0.08,Wunderground v.1.15,2013-11-12 20:10:00,
2013-11-12 15:15:00,34.4,21.9,30.61,NE,36,6.0,13.0,60,0.00,,,0.08,Wunderground v.1.15,2013-11-12 20:15:00,
2013-11-12 15:20:00,34.6,20.1,30.61,NNE,22,6.0,6.0,55,0.00,,,0.08,Wunderground v.1.15,2013-11-12 20:20:00,
2013-11-12 15:25:00,34.1,19.2,30.61,ENE,57,7.0,7.0,54,0.00,,,0.08,Wunderground v.1.15,2013-11-12 20:25:00,
2013-11-12 15:35:00,33.9,20.3,30.61,East,81,4.0,9.0,57,0.00,,,0.08,Wunderground v.1.15,2013-11-12 20:35:00,
2013-11-12 15:40:00,34.1,20.0,30.61,NNE,18,5.0,10.0,56,0.00,,,0.08,Wunderground v.1.15,2013-11-12 20:40:00,
2013-11-12 15:45:00,33.8,19.7,30.62,NE,45,6.0,14.0,56,0.00,,,0.08,Wunderground v.1.15,2013-11-12 20:45:00,
2013-11-12 15:50:00,33.6,20.0,30.62,NNW,337,7.0,7.0,57,0.00,,,0.08,Wunderground v.1.15,2013-11-12 20:50:00,
2013-11-12 16:05:00,33.9,19.8,30.62,ENE,60,6.0,6.0,56,0.00,,,0.08,Wunderground v.1.15,2013-11-12 21:05:00,
2013-11-12 16:10:00,34.4,20.7,30.62,North,355,4.0,9.0,57,0.00,,,0.08,Wunderground v.1.15,2013-11-12 21:10:00,
2013-11-12 16:15:00,34.2,19.3,30.63,NNE,24,5.0,5.0,54,0.00,,,0.08,Wunderground v.1.15,2013-11-12 21:15:00,
2013-11-12 16:20:00,34.0,19.5,30.63,ENE,69,6.0,6.0,55,0.00,,,0.08,Wunderground v.1.15,2013-11-12 21:20:00,
2013-11-12 16:25:00,33.8,19.3,30.63,North,5,4.0,9.0,55,0.00,,,0.08,Wunderground v.1.15,2013-11-12 21:25:00,
2013-11-12 16:30:00,33.8,20.6,30.63,ENE,76,4.0,9.0,58,0.00,,,0.08,Wunderground v.1.15,2013-11-12 21:30:00,
2013-11-12 16:35:00,33.5,19.5,30.64,ENE,75,4.0,4.0,56,0.00,,,0.08,Wunderground v.1.15,2013-11-12 21:35:00,
2013-11-12 16:45:00,33.7,20.1,30.64,NNE,12,1.0,9.0,57,0.00,,,0.08,Wunderground v.1.15,2013-11-12 21:45:00,
2013-11-12 16:50:00,33.8,20.6,30.64,ENE,74,2.0,9.0,58,0.00,,,0.08,Wunderground v.1.15,2013-11-12 21:50:00,
2013-11-12 17:05:00,33.2,20.4,30.64,ESE,112,4.0,4.0,59,0.00,,,0.08,Wunderground v.1.15,2013-11-12 22:05:00,
2013-11-12 17:15:00,32.7,20.7,30.64,ENE,75,0.0,9.0,61,0.00,,,0.08,Wunderground v.1.15,2013-11-12 22:15:00,
2013-11-12 17:20:00,32.4,20.4,30.65,ENE,67,0.0,9.0,61,0.00,,,0.08,Wunderground v.1.15,2013-11-12 22:20:00,
2013-11-12 17:25:00,32.1,20.2,30.65,ENE,78,1.0,1.0,61,0.00,,,0.08,Wunderground v.1.15,2013-11-12 22:25:00,
2013-11-12 17:30:00,31.9,20.7,30.65,ENE,69,1.0,9.0,63,0.00,,,0.08,Wunderground v.1.15,2013-11-12 22:30:00,
2013-11-12 17:35:00,31.6,20.4,30.65,East,82,0.0,9.0,63,0.00,,,0.08,Wunderground v.1.15,2013-11-12 22:35:00,
2013-11-12 17:40:00,31.4,20.2,30.65,ENE,74,0.0,9.0,63,0.00,,,0.08,Wunderground v.1.15,2013-11-12 22:40:00,
2013-11-12 17:45:00,31.2,20.4,30.65,NE,56,0.0,9.0,64,0.00,,,0.08,Wunderground v.1.15,2013-11-12 22:45:00,
2013-11-12 17:50:00,31.1,20.3,30.65,NE,53,0.0,9.0,64,0.00,,,0.08,Wunderground v.1.15,2013-11-12 22:50:00,
2013-11-12 17:55:00,31.0,20.6,30.65,NE,51,0.0,9.0,65,0.00,,,0.08,Wunderground v.1.15,2013-11-12 22:55:00,
2013-11-12 18:05:00,30.8,20.4,30.65,NE,51,0.0,9.0,65,0.00,,,0.08,Wunderground v.1.15,2013-11-12 23:05:00,
2013-11-12 18:10:00,30.8,20.0,30.66,NE,55,0.0,9.0,64,0.00,,,0.08,Wunderground v.1.15,2013-11-12 23:10:00,
2013-11-12 18:15:00,30.8,20.0,30.66,ENE,57,0.0,9.0,64,0.00,,,0.08,Wunderground v.1.15,2013-11-12 23:15:00,
2013-11-12 18:20:00,30.8,20.0,30.66,NE,46,0.0,9.0,64,0.00,,,0.08,Wunderground v.1.15,2013-11-12 23:20:00,
2013-11-12 18:25:00,30.6,20.2,30.66,NE,34,0.0,9.0,65,0.00,,,0.08,Wunderground v.1.15,2013-11-12 23:25:00,
2013-11-12 18:30:00,30.3,20.3,30.67,ENE,61,0.0,9.0,66,0.00,,,0.08,Wunderground v.1.15,2013-11-12 23:30:00,
2013-11-12 18:35:00,30.4,20.7,30.67,NNE,21,1.0,1.0,67,0.00,,,0.08,Wunderground v.1.15,2013-11-12 23:35:00,
2013-11-12 18:45:00,30.3,21.0,30.67,NE,46,2.0,2.0,68,0.00,,,0.08,Wunderground v.1.15,2013-11-12 23:45:00,
2013-11-12 18:50:00,30.2,20.6,30.67,NE,49,2.0,5.0,67,0.00,,,0.08,Wunderground v.1.15,2013-11-12 23:50:00,
2013-11-12 18:55:00,30.1,20.8,30.67,NNE,29,2.0,9.0,68,0.00,,,0.08,Wunderground v.1.15,2013-11-12 23:55:00,
2013-11-12 19:05:00,29.7,20.8,30.68,NE,53,1.0,1.0,69,0.00,,,0.08,Wunderground v.1.15,2013-11-13 00:05:00,
2013-11-12 19:10:00,29.6,20.7,30.68,NNE,15,1.0,2.0,69,0.00,,,0.08,Wunderground v.1.15,2013-11-13 00:10:00,
2013-11-12 19:15:00,29.4,20.5,30.68,NNE,31,1.0,9.0,69,0.00,,,0.08,Wunderground v.1.15,2013-11-13 00:15:00,
2013-11-12 19:20:00,29.4,20.5,30.68,ENE,58,1.0,9.0,69,0.00,,,0.08,Wunderground v.1.15,2013-11-13 00:20:00,
2013-11-12 19:25:00,29.3,20.4,30.68,NE,56,1.0,9.0,69,0.00,,,0.08,Wunderground v.1.15,2013-11-13 00:25:00,
2013-11-12 19:30:00,29.3,20.4,30.68,NE,34,1.0,9.0,69,0.00,,,0.08,Wunderground v.1.15,2013-11-13 00:30:00,
2013-11-12 19:35:00,29.3,20.4,30.68,ENE,71,2.0,9.0,69,0.00,,,0.08,Wunderground v.1.15,2013-11-13 00:35:00,
2013-11-12 19:40:00,29.3,20.0,30.68,NNE,27,1.0,9.0,68,0.00,,,0.08,Wunderground v.1.15,2013-11-13 00:40:00,
2013-11-12 19:50:00,29.2,19.9,30.68,ENE,60,1.0,9.0,68,0.00,,,0.08,Wunderground v.1.15,2013-11-13 00:50:00,
2013-11-12 19:55:00,29.2,19.9,30.68,NE,53,2.0,2.0,68,0.00,,,0.08,Wunderground v.1.15,2013-11-13 00:55:00,
2013-11-12 20:00:00,29.1,19.8,30.68,ENE,59,1.0,1.0,68,0.00,,,0.08,Wunderground v.1.15,2013-11-13 01:00:00,
2013-11-12 20:05:00,29.0,19.8,30.68,ENE,63,1.0,9.0,68,0.00,,,0.08,Wunderground v.1.15,2013-11-13 01:05:00,
2013-11-12 20:10:00,28.9,20.0,30.68,ENE,67,1.0,9.0,69,0.00,,,0.08,Wunderground v.1.15,2013-11-13 01:10:00,
2013-11-12 20:15:00,28.7,20.1,30.68,ENE,66,1.0,9.0,70,0.00,,,0.08,Wunderground v.1.15,2013-11-13 01:15:00,
2013-11-12 20:20:00,28.7,19.8,30.69,NE,54,1.0,9.0,69,0.00,,,0.08,Wunderground v.1.15,2013-11-13 01:20:00,
2013-11-12 20:25:00,28.7,19.8,30.69,NE,54,2.0,9.0,69,0.00,,,0.08,Wunderground v.1.15,2013-11-13 01:25:00,
2013-11-12 20:35:00,28.9,19.7,30.69,NE,51,2.0,9.0,68,0.00,,,0.08,Wunderground v.1.15,2013-11-13 01:35:00,
2013-11-12 20:40:00,28.9,19.7,30.69,ENE,57,1.0,9.0,68,0.00,,,0.08,Wunderground v.1.15,2013-11-13 01:40:00,
2013-11-12 20:45:00,28.9,19.7,30.69,NE,52,2.0,9.0,68,0.00,,,0.08,Wunderground v.1.15,2013-11-13 01:45:00,
2013-11-12 20:50:00,28.8,19.6,30.70,NE,56,2.0,2.0,68,0.00,,,0.08,Wunderground v.1.15,2013-11-13 01:50:00,
2013-11-12 21:00:00,28.7,19.5,30.70,NE,40,1.0,9.0,68,0.00,,,0.08,Wunderground v.1.15,2013-11-13 02:00:00,
2013-11-12 21:05:00,28.6,19.7,30.70,NE,47,1.0,9.0,69,0.00,,,0.08,Wunderground v.1.15,2013-11-13 02:05:00,
2013-11-12 21:10:00,28.5,19.3,30.70,NE,55,1.0,1.0,68,0.00,,,0.08,Wunderground v.1.15,2013-11-13 02:10:00,
2013-11-12 21:15:00,28.5,19.6,30.70,ENE,65,1.0,3.0,69,0.00,,,0.08,Wunderground v.1.15,2013-11-13 02:15:00,
2013-11-12 21:20:00,28.5,19.3,30.71,NE,53,1.0,1.0,68,0.00,,,0.08,Wunderground v.1.15,2013-11-13 02:20:00,
2013-11-12 21:25:00,28.4,19.5,30.71,ENE,59,1.0,9.0,69,0.00,,,0.08,Wunderground v.1.15,2013-11-13 02:25:00,
2013-11-12 21:35:00,28.3,19.4,30.72,ENE,72,1.0,9.0,69,0.00,,,0.08,Wunderground v.1.15,2013-11-13 02:35:00,
2013-11-12 21:45:00,28.1,19.6,30.72,NE,47,1.0,9.0,70,0.00,,,0.08,Wunderground v.1.15,2013-11-13 02:45:00,
2013-11-12 21:50:00,28.0,19.5,30.72,NE,45,1.0,1.0,70,0.00,,,0.08,Wunderground v.1.15,2013-11-13 02:50:00,
2013-11-12 21:55:00,27.9,19.4,30.72,NE,50,1.0,9.0,70,0.00,,,0.08,Wunderground v.1.15,2013-11-13 02:55:00,
2013-11-12 22:05:00,27.7,19.5,30.72,NNE,30,0.0,9.0,71,0.00,,,0.08,Wunderground v.1.15,2013-11-13 03:05:00,
2013-11-12 22:10:00,27.6,19.4,30.72,NE,46,0.0,9.0,71,0.00,,,0.08,Wunderground v.1.15,2013-11-13 03:10:00,
2013-11-12 22:15:00,27.5,19.3,30.72,NE,48,0.0,9.0,71,0.00,,,0.08,Wunderground v.1.15,2013-11-13 03:15:00,
2013-11-12 22:20:00,27.4,19.6,30.72,NE,49,0.0,9.0,72,0.00,,,0.08,Wunderground v.1.15,2013-11-13 03:20:00,
2013-11-12 22:25:00,27.2,19.4,30.72,NE,43,0.0,9.0,72,0.00,,,0.08,Wunderground v.1.15,2013-11-13 03:25:00,
2013-11-12 22:30:00,26.9,19.4,30.72,NE,43,0.0,9.0,73,0.00,,,0.08,Wunderground v.1.15,2013-11-13 03:30:00,
2013-11-12 22:35:00,26.7,19.2,30.72,NE,43,0.0,9.0,73,0.00,,,0.08,Wunderground v.1.15,2013-11-13 03:35:00,
2013-11-12 22:39:00,26.6,19.1,30.73,NE,43,0.0,9.0,73,0.00,,,0.08,Wunderground v.1.15,2013-11-13 03:39:00,
2013-11-12 22:45:00,26.6,19.1,30.72,NE,43,0.0,9.0,73,0.00,,,0.08,Wunderground v.1.15,2013-11-13 03:45:00,
2013-11-12 22:50:00,26.6,19.1,30.73,NE,42,0.0,9.0,73,0.00,,,0.08,Wunderground v.1.15,2013-11-13 03:50:00,
2013-11-12 22:55:00,26.7,19.2,30.73,NE,43,0.0,9.0,73,0.00,,,0.08,Wunderground v.1.15,2013-11-13 03:55:00,
2013-11-12 23:00:00,26.8,19.3,30.73,NNE,21,0.0,9.0,73,0.00,,,0.08,Wunderground v.1.15,2013-11-13 04:00:00,
2013-11-12 23:05:00,26.7,19.2,30.73,NNE,21,0.0,9.0,73,0.00,,,0.08,Wunderground v.1.15,2013-11-13 04:05:00,
2013-11-12 23:10:00,26.7,19.2,30.72,NNE,24,0.0,9.0,73,0.00,,,0.08,Wunderground v.1.15,2013-11-13 04:10:00,
2013-11-12 23:15:00,26.5,19.0,30.73,NNE,24,0.0,9.0,73,0.00,,,0.08,Wunderground v.1.15,2013-11-13 04:15:00,
2013-11-12 23:20:00,26.3,19.1,30.72,NNE,24,0.0,9.0,74,0.00,,,0.08,Wunderground v.1.15,2013-11-13 04:20:00,
2013-11-12 23:30:00,26.3,19.1,30.73,NNE,24,0.0,9.0,74,0.00,,,0.08,Wunderground v.1.15,2013-11-13 04:30:00,
2013-11-12 23:40:00,25.6,18.8,30.73,NNE,24,0.0,9.0,75,0.00,,,0.08,Wunderground v.1.15,2013-11-13 04:40:00,
2013-11-12 23:45:00,25.3,18.5,30.73,NNE,24,0.0,9.0,75,0.00,,,0.08,Wunderground v.1.15,2013-11-13 04:45:00,
2013-11-12 23:50:00,25.3,18.8,30.72,NNE,24,0.0,9.0,76,0.00,,,0.08,Wunderground v.1.15,2013-11-13 04:50:00,
2013-11-12 23:55:00,25.2,18.7,30.72,NNE,24,0.0,9.0,76,0.00,,,0.08,Wunderground v.1.15,2013-11-13 04:55:00,